Mengshan, China
Current Conditions -  °F | °C
As of 2:00 AM on Friday 24 Oct 2014 (Local Time) from ZGKL Reporting Station
Haze Haze  
Wind Chill: 59°   Ceiling: Unl
Heat Index: 59°   Visibility: 2.5mi
Dew Point: 57°   Wind: 0mph
Humidity: 94%   Direction: NA
Pressure: 30.03"   Gusts: NA
Location:  24.2°N, 110.52°E
Report Text: ZGKL 231800Z 00000MPS 4000 BR NSC 15/14 Q1017 NOSIG
Loading
Personal Weather Stations






























Interactive Weather Map
Tropical Storm Tracking
New forecast layout! Learn more

10-Day Weather Forecast

Advertisements
Track Severe Weather on mobile